Time;durP1;ratioP1;P1;durP2;ratioP2;P2;SDS_P1;SDS_P2;PMS_P1;PMS_P2;Temp;Humidity;BMP_temperature;BMP_pressure;BME280_temperature;BME280_humidity;BME280_pressure;Samples;Min_cycle;Max_cycle;Signal;HPM_P1;HPM_P2
2023/09/23 00:00:54;;;;;;;13.32;6.93;;;;;;;17.81;100.00;100874.31;10289974;28;20046;-81
2023/09/23 00:05:55;;;;;;;13.02;6.97;;;;;;;17.95;100.00;100894.81;10260447;28;20051;-80
2023/09/23 00:10:55;;;;;;;9.43;5.70;;;;;;;18.01;100.00;100908.28;10252317;29;20047;-79
2023/09/23 00:15:56;;;;;;;10.65;5.93;;;;;;;18.41;100.00;100972.88;10251338;28;20102;-81
2023/09/23 00:20:57;;;;;;;13.45;6.15;;;;;;;18.19;100.00;100945.34;10251023;29;20047;-81
2023/09/23 00:25:58;;;;;;;14.43;6.32;;;;;;;18.21;100.00;100947.81;10234411;29;20054;-80
2023/09/23 00:31:05;;;;;;;11.50;6.03;;;;;;;18.38;100.00;100977.84;10252168;29;20062;-83
2023/09/23 00:36:10;;;;;;;8.55;5.68;;;;;;;18.02;100.00;100928.75;10235071;28;20133;-82
2023/09/23 00:41:12;;;;;;;8.27;5.32;;;;;;;17.73;100.00;100883.34;10259382;29;20050;-79
2023/09/23 00:46:19;;;;;;;10.48;6.05;;;;;;;17.69;100.00;100879.41;10258894;29;20054;-81
2023/09/23 00:51:21;;;;;;;8.75;5.88;;;;;;;17.89;100.00;100912.59;10258697;29;20101;-81
2023/09/23 00:56:22;;;;;;;10.70;5.57;;;;;;;17.75;100.00;100890.19;10264407;28;20050;-79
2023/09/23 01:01:23;;;;;;;8.98;5.82;;;;;;;17.53;100.00;100859.94;10263041;28;20059;-83
2023/09/23 01:06:28;;;;;;;8.82;5.90;;;;;;;17.76;100.00;100907.94;10240069;29;20043;-79
2023/09/23 01:11:30;;;;;;;10.77;6.55;;;;;;;18.23;100.00;100978.84;10257703;29;20550;-80
2023/09/23 01:16:33;;;;;;;12.20;6.40;;;;;;;17.98;100.00;100951.69;10257593;28;20055;-80
2023/09/23 01:21:33;;;;;;;11.95;7.40;;;;;;;16.97;100.00;100810.94;10240806;29;20066;-80
2023/09/23 01:26:35;;;;;;;9.98;6.97;;;;;;;17.29;100.00;100865.78;10257199;29;20051;-79
2023/09/23 01:31:36;;;;;;;9.25;7.40;;;;;;;18.00;100.00;101003.38;10257583;29;20051;-79
2023/09/23 01:36:40;;;;;;;13.07;7.22;;;;;;;17.44;100.00;100920.22;10239489;29;20055;-81
2023/09/23 01:41:41;;;;;;;11.35;7.88;;;;;;;16.47;100.00;100778.81;10256952;29;20535;-79
2023/09/23 01:46:42;;;;;;;16.27;7.85;;;;;;;17.21;100.00;100890.97;10256928;28;20059;-79
2023/09/23 01:51:44;;;;;;;10.02;7.75;;;;;;;17.59;100.00;100960.38;10238758;29;20160;-79
2023/09/23 01:56:45;;;;;;;13.30;8.02;;;;;;;17.31;100.00;100915.59;10256187;29;20598;-79
2023/09/23 02:01:45;;;;;;;12.93;7.97;;;;;;;17.51;100.00;100953.31;10255551;29;20043;-80
2023/09/23 02:06:46;;;;;;;11.73;8.38;;;;;;;17.67;100.00;100975.50;10238527;29;20084;-81
2023/09/23 02:11:48;;;;;;;13.07;8.65;;;;;;;17.36;100.00;100938.34;10255035;28;20051;-78
2023/09/23 02:16:49;;;;;;;12.25;8.80;;;;;;;17.03;100.00;100901.41;10255325;28;20566;-80
2023/09/23 02:21:51;;;;;;;15.55;8.48;;;;;;;17.19;100.00;100940.53;10254643;29;20043;-80
2023/09/23 02:26:52;;;;;;;26.10;9.73;;;;;;;17.15;100.00;100932.03;10255169;29;20063;-78
2023/09/23 02:31:53;;;;;;;11.93;8.32;;;;;;;17.54;100.00;100993.22;10255519;29;20488;-80
2023/09/23 02:36:54;;;;;;;45.72;8.60;;;;;;;17.42;100.00;100980.53;10236894;29;20058;-78
2023/09/23 02:41:55;;;;;;;26.55;8.10;;;;;;;17.51;100.00;101006.22;10254542;29;20138;-79
2023/09/23 02:46:56;;;;;;;25.38;8.48;;;;;;;17.08;100.00;100964.22;10254827;28;20137;-81
2023/09/23 02:51:56;;;;;;;10.88;7.75;;;;;;;16.53;100.00;100896.03;10254261;29;20059;-79
2023/09/23 02:56:57;;;;;;;16.10;8.23;;;;;;;16.93;100.00;100952.75;10254479;28;20055;-80
2023/09/23 03:02:00;;;;;;;15.30;8.23;;;;;;;17.17;100.00;101010.53;10252786;28;20427;-81
2023/09/23 03:07:04;;;;;;;12.43;7.93;;;;;;;16.95;100.00;100982.88;10253614;29;20050;-80
2023/09/23 03:12:05;;;;;;;18.45;8.15;;;;;;;16.86;100.00;100979.50;10263343;28;20567;-79
2023/09/23 03:17:09;;;;;;;12.07;7.50;;;;;;;16.50;100.00;100914.38;10252490;28;20094;-77
2023/09/23 03:22:09;;;;;;;12.02;7.97;;;;;;;16.99;100.00;100997.59;10252491;29;20062;-78
2023/09/23 03:27:16;;;;;;;11.27;7.18;;;;;;;17.40;100.00;101050.56;10252918;29;20055;-78
2023/09/23 03:32:17;;;;;;;12.82;7.00;;;;;;;17.65;100.00;101050.94;10252370;29;20047;-78
2023/09/23 03:37:18;;;;;;;9.48;6.80;;;;;;;17.61;100.00;101008.53;10252393;28;20051;-79
2023/09/23 03:42:19;;;;;;;20.98;7.45;;;;;;;17.34;100.00;100936.69;10235778;29;20142;-79
2023/09/23 03:47:20;;;;;;;9.63;6.40;;;;;;;17.79;100.00;101004.31;10251923;29;20051;-78
2023/09/23 03:52:20;;;;;;;10.52;6.53;;;;;;;18.06;100.00;101042.06;10259125;28;20050;-79
2023/09/23 03:57:21;;;;;;;10.70;6.38;;;;;;;18.32;100.00;101024.41;10239978;28;20065;-79
2023/09/23 04:02:25;;;;;;;10.40;5.72;;;;;;;18.93;100.00;101043.16;10265070;28;20051;-80
2023/09/23 04:07:25;;;;;;;9.50;5.38;;;;;;;19.20;100.00;100998.19;10291896;28;20054;-79
2023/09/23 04:12:26;;;;;;;8.65;4.93;;;;;;;19.18;99.63;100934.84;10283005;28;20411;-80
2023/09/23 04:17:27;;;;;;;19.30;5.68;;;;;;;20.04;96.98;100974.97;10279866;28;20141;-80
2023/09/23 04:22:28;;;;;;;10.23;4.95;;;;;;;20.74;93.36;101062.22;10275043;28;20114;-78
2023/09/23 04:27:29;;;;;;;5.60;4.57;;;;;;;20.33;91.02;101019.44;10259526;29;20058;-80
2023/09/23 04:32:29;;;;;;;7.75;5.05;;;;;;;20.17;89.94;100998.38;10262862;28;20594;-80
2023/09/23 04:37:33;;;;;;;14.68;5.05;;;;;;;19.90;90.18;101022.75;10299209;28;20570;-77
2023/09/23 04:42:35;;;;;;;7.13;4.85;;;;;;;19.62;90.26;100993.34;10298904;28;20062;-79
2023/09/23 04:47:38;;;;;;;10.60;5.22;;;;;;;19.47;89.04;100963.13;10268350;28;20512;-81
2023/09/23 04:52:40;;;;;;;9.57;6.63;;;;;;;18.98;88.43;100873.75;10257844;29;20536;-78
2023/09/23 04:57:41;;;;;;;19.13;5.28;;;;;;;20.25;88.62;101062.84;10261101;28;20913;-74
2023/09/23 05:02:42;;;;;;;8.90;4.78;;;;;;;20.25;88.21;101025.94;10266100;28;20106;-74
2023/09/23 05:07:44;;;;;;;8.23;4.47;;;;;;;20.75;87.25;101065.75;10257786;28;20055;-75
2023/09/23 05:12:45;;;;;;;9.02;4.68;;;;;;;21.11;86.34;101083.16;10256882;29;20055;-75
2023/09/23 05:17:46;;;;;;;11.73;4.03;;;;;;;20.76;84.91;101013.41;10257598;28;20059;-75
2023/09/23 05:22:47;;;;;;;8.68;4.00;;;;;;;20.93;84.68;101027.19;10255796;28;20063;-75
2023/09/23 05:27:48;;;;;;;10.18;4.00;;;;;;;21.35;83.77;101051.75;10256726;29;20047;-73
2023/09/23 05:32:49;;;;;;;8.75;4.10;;;;;;;21.73;83.32;101069.75;10257121;29;20419;-75
2023/09/23 05:37:51;;;;;;;15.93;3.85;;;;;;;21.58;82.50;101030.38;10260135;28;20455;-72
2023/09/23 05:42:53;;;;;;;8.32;3.65;;;;;;;21.76;81.80;101031.44;10270418;28;20070;-85
2023/09/23 05:47:54;;;;;;;7.75;3.38;;;;;;;21.88;81.18;100987.16;10273167;28;20051;-78
2023/09/23 05:52:56;;;;;;;13.40;4.03;;;;;;;21.87;81.21;101020.69;10259088;28;20062;-85
2023/09/23 05:57:57;;;;;;;6.75;3.33;;;;;;;22.30;80.30;101075.75;10270380;28;20046;-78
2023/09/23 06:02:58;;;;;;;7.72;3.67;;;;;;;22.00;79.98;101010.75;10287087;28;20053;-81
2023/09/23 06:07:59;;;;;;;8.15;3.70;;;;;;;22.48;79.12;101053.25;10293321;28;20043;-77
2023/09/23 06:13:00;;;;;;;12.50;3.47;;;;;;;22.63;78.97;101072.59;10294898;28;20419;-76
2023/09/23 06:18:02;;;;;;;6.72;3.28;;;;;;;22.58;78.57;101048.09;10294942;28;20133;-74
2023/09/23 06:23:03;;;;;;;19.35;9.02;;;;;;;22.35;78.34;101008.25;10277700;28;20046;-80
2023/09/23 06:28:04;;;;;;;15.32;3.88;;;;;;;22.80;76.53;101029.44;10269800;28;20055;-76
2023/09/23 06:33:05;;;;;;;10.63;3.60;;;;;;;23.45;75.12;101071.94;10234553;28;20142;-83
2023/09/23 06:38:06;;;;;;;14.18;3.25;;;;;;;23.66;73.84;101046.97;10253285;28;20150;-76
2023/09/23 06:43:07;;;;;;;10.52;3.42;;;;;;;23.99;72.44;101056.38;10235469;29;20048;-79
2023/09/23 06:48:08;;;;;;;14.60;3.22;;;;;;;24.11;70.07;101076.16;10264934;28;20047;-75
2023/09/23 06:53:08;;;;;;;14.40;3.10;;;;;;;23.68;69.02;101019.59;10264058;28;20099;-75
2023/09/23 06:58:09;;;;;;;15.05;3.10;;;;;;;24.28;67.53;101067.25;10253372;29;20051;-76
2023/09/23 07:03:10;;;;;;;14.88;3.15;;;;;;;24.05;65.95;100968.56;10253446;29;20047;-75
2023/09/23 07:08:12;;;;;;;14.70;2.67;;;;;;;24.62;63.88;101059.22;10253079;29;20055;-75
2023/09/23 07:13:13;;;;;;;8.57;2.92;;;;;;;24.16;61.90;100934.28;10253074;28;20043;-76
2023/09/23 07:18:14;;;;;;;10.10;3.03;;;;;;;25.25;60.14;101042.69;10289293;28;20442;-76
2023/09/23 07:23:14;;;;;;;10.80;2.35;;;;;;;25.17;58.64;101010.47;10292068;28;20053;-75
2023/09/23 07:28:15;;;;;;;8.57;2.45;;;;;;;25.67;57.02;101033.22;10291965;28;20053;-77
2023/09/23 07:33:16;;;;;;;14.63;3.05;;;;;;;25.40;55.64;100957.78;10261552;28;20047;-74
2023/09/23 07:38:17;;;;;;;5.72;2.58;;;;;;;25.51;53.86;100943.22;10285979;28;20055;-78
2023/09/23 07:43:18;;;;;;;24.58;3.33;;;;;;;26.09;53.72;100978.22;10253458;28;20054;-75
2023/09/23 07:48:19;;;;;;;24.67;3.13;;;;;;;26.36;52.11;100992.66;10288952;28;20086;-75
2023/09/23 07:53:20;;;;;;;9.35;3.03;;;;;;;26.65;50.44;100997.84;10292042;28;21064;-77
2023/09/23 07:58:21;;;;;;;11.45;2.42;;;;;;;26.88;49.83;101001.31;10291175;28;20050;-78
2023/09/23 08:03:26;;;;;;;11.65;2.70;;;;;;;26.85;48.54;100968.03;10289379;28;20043;-77
2023/09/23 08:08:27;;;;;;;12.38;2.53;;;;;;;26.88;47.57;100965.88;10268449;28;20118;-79
2023/09/23 08:13:28;;;;;;;7.53;2.53;;;;;;;27.50;46.51;101000.66;10251291;28;20512;-78
2023/09/23 08:18:29;;;;;;;10.30;2.60;;;;;;;27.59;45.42;100998.25;10251373;28;20051;-77
2023/09/23 08:23:30;;;;;;;15.10;2.47;;;;;;;27.73;44.92;100999.41;10251804;29;20058;-78
2023/09/23 08:28:31;;;;;;;16.05;2.72;;;;;;;27.37;42.49;100927.47;10250698;29;20069;-76
2023/09/23 08:33:32;;;;;;;23.52;2.80;;;;;;;27.67;42.55;100986.81;10250733;29;20055;-77
2023/09/23 08:38:33;;;;;;;8.32;2.60;;;;;;;27.57;42.16;100943.94;10250487;29;20153;-77
2023/09/23 08:43:38;;;;;;;20.00;2.95;;;;;;;28.10;40.93;100991.09;10251837;29;20134;-76
2023/09/23 08:48:42;;;;;;;32.92;3.38;;;;;;;27.77;39.33;100952.19;10251321;29;20058;-77
2023/09/23 08:53:45;;;;;;;7.88;2.40;;;;;;;27.78;39.16;100923.00;10250903;29;20051;-76
2023/09/23 08:58:48;;;;;;;23.33;2.90;;;;;;;27.59;39.39;100818.97;10253611;28;20058;-78
2023/09/23 09:03:53;;;;;;;17.33;3.05;;;;;;;28.57;38.02;100949.13;10257712;29;20043;-77
2023/09/23 09:08:53;;;;;;;12.88;3.00;;;;;;;28.34;37.99;100900.44;10257746;29;20107;-78
2023/09/23 09:13:54;;;;;;;22.73;3.72;;;;;;;28.71;37.99;100949.38;10258132;28;20055;-79
2023/09/23 09:18:55;;;;;;;12.45;2.40;;;;;;;28.26;37.89;100958.34;10239888;29;20070;-78
2023/09/23 09:23:56;;;;;;;10.30;2.20;;;;;;;27.39;37.49;100857.09;10256392;29;20043;-76
2023/09/23 09:28:57;;;;;;;12.10;2.85;;;;;;;28.14;37.91;100956.69;10259762;28;20139;-76
2023/09/23 09:34:05;;;;;;;22.48;3.30;;;;;;;27.86;37.69;100916.22;10297039;28;20141;-76
2023/09/23 09:39:10;;;;;;;19.33;3.47;;;;;;;27.97;37.63;100961.56;10268205;28;20049;-76
2023/09/23 09:44:15;;;;;;;16.70;2.78;;;;;;;27.52;38.29;100927.53;10256969;28;20067;-76
2023/09/23 09:49:16;;;;;;;26.55;2.85;;;;;;;27.26;37.68;100907.53;10277798;28;20047;-77
2023/09/23 09:54:20;;;;;;;17.90;3.10;;;;;;;26.53;38.23;100785.50;10255631;29;20106;-76
2023/09/23 09:59:30;;;;;;;23.33;2.95;;;;;;;28.36;37.27;100948.25;10238261;29;20051;-78
2023/09/23 10:04:35;;;;;;;11.80;2.70;;;;;;;28.67;36.17;100908.09;10256114;29;20051;-78
2023/09/23 10:09:38;;;;;;;15.98;2.75;;;;;;;28.65;36.15;100865.72;10237648;28;20054;-76
2023/09/23 10:14:40;;;;;;;14.57;2.80;;;;;;;29.10;34.91;100932.38;10255057;29;20074;-77
2023/09/23 10:19:42;;;;;;;17.90;2.90;;;;;;;28.85;34.59;100873.06;10255070;29;20094;-76
2023/09/23 10:24:43;;;;;;;22.17;3.35;;;;;;;29.35;34.89;100921.38;10255074;29;20086;-77
2023/09/23 10:29:48;;;;;;;13.18;3.10;;;;;;;29.38;33.27;100910.94;10254601;29;20051;-79
2023/09/23 10:34:55;;;;;;;12.95;3.38;;;;;;;28.99;33.48;100840.47;10264120;28;20130;-77
2023/09/23 10:40:05;;;;;;;23.08;3.40;;;;;;;29.52;33.77;100888.16;10261177;28;20106;-78
2023/09/23 10:45:08;;;;;;;31.10;4.03;;;;;;;29.26;33.50;100840.97;10254773;29;20079;-77
2023/09/23 10:50:09;;;;;;;;;;;;;;;29.74;32.47;100892.47;10254431;29;20055;-77
2023/09/23 10:55:10;;;;;;;20.15;3.13;;;;;;;29.30;33.37;100874.06;10252202;29;20019;-77
2023/09/23 11:00:18;;;;;;;39.40;3.78;;;;;;;29.32;33.66;100872.69;10254220;28;20156;-77
2023/09/23 11:05:21;;;;;;;22.95;3.83;;;;;;;29.29;32.82;100883.38;10268060;28;20503;-78
2023/09/23 11:10:23;;;;;;;18.67;3.40;;;;;;;29.00;33.20;100829.25;10272592;28;20069;-77
2023/09/23 11:15:24;;;;;;;18.40;3.50;;;;;;;29.30;33.09;100854.91;10269056;28;20062;-79
2023/09/23 11:20:30;;;;;;;12.52;2.92;;;;;;;29.18;32.86;100859.88;10268534;28;20534;-78
2023/09/23 11:25:42;;;;;;;14.13;3.08;;;;;;;29.31;33.03;100875.69;10288103;28;20062;-78
2023/09/23 11:30:43;;;;;;;15.43;3.03;;;;;;;29.32;32.61;100847.22;10277144;28;20193;-79
2023/09/23 11:35:44;;;;;;;21.48;3.63;;;;;;;29.30;31.44;100861.19;10267675;28;20129;-77
2023/09/23 11:40:46;;;;;;;24.17;3.88;;;;;;;29.03;31.61;100836.94;10247746;29;20423;-77
2023/09/23 11:45:48;;;;;;;23.05;3.67;;;;;;;29.03;31.73;100842.41;10247671;29;20039;-76
2023/09/23 11:50:49;;;;;;;26.50;4.10;;;;;;;28.47;31.29;100757.81;10247467;28;20495;-78
2023/09/23 11:55:50;;;;;;;22.98;3.50;;;;;;;28.81;30.76;100834.53;10247370;29;20054;-78
2023/09/23 12:00:51;;;;;;;35.25;4.13;;;;;;;28.76;31.06;100811.84;10247238;29;20047;-77
2023/09/23 12:05:52;;;;;;;33.17;4.10;;;;;;;28.87;30.76;100832.59;10249047;28;20078;-76
2023/09/23 12:10:54;;;;;;;29.10;4.03;;;;;;;28.78;30.56;100823.31;10253084;28;20050;-80
2023/09/23 12:21:12;;;;;;;19.98;3.78;;;;;;;28.66;30.75;100821.72;12512414;23;20826;-77
2023/09/23 12:26:15;;;;;;;32.47;4.30;;;;;;;28.82;30.72;100851.75;10288427;28;20066;-75
2023/09/23 12:31:16;;;;;;;29.35;4.45;;;;;;;28.71;31.16;100839.19;10291786;28;20458;-78
2023/09/23 12:36:17;;;;;;;51.20;5.70;;;;;;;28.47;30.85;100800.72;10298372;28;20112;-76
2023/09/23 12:41:18;;;;;;;29.00;4.20;;;;;;;28.66;31.19;100821.72;10298406;28;20081;-79
2023/09/23 12:46:19;;;;;;;44.10;4.35;;;;;;;28.32;30.75;100768.75;10296299;28;20056;-78
2023/09/23 12:51:20;;;;;;;30.05;4.20;;;;;;;28.56;31.33;100849.06;10298449;28;20051;-76
2023/09/23 12:56:21;;;;;;;38.85;4.38;;;;;;;28.38;31.32;100850.41;10298752;28;20058;-77
2023/09/23 13:01:22;;;;;;;54.60;4.35;;;;;;;27.92;31.64;100770.44;10297540;28;20521;-76
2023/09/23 13:06:23;;;;;;;23.48;3.35;;;;;;;27.94;32.09;100790.91;10298105;28;20043;-78
2023/09/23 13:11:24;;;;;;;29.38;5.28;;;;;;;28.01;32.21;100798.81;10298863;28;20055;-77
2023/09/23 13:16:25;;;;;;;38.17;4.78;;;;;;;28.04;31.91;100838.44;10296901;28;20050;-78
2023/09/23 13:21:26;;;;;;;27.33;4.20;;;;;;;27.79;31.52;100834.59;10299747;28;20050;-75
2023/09/23 13:26:26;;;;;;;33.90;4.68;;;;;;;27.57;31.78;100837.50;10337195;28;20050;-78
2023/09/23 13:31:27;;;;;;;25.17;4.07;;;;;;;27.40;31.91;100835.03;10337101;28;20089;-77
2023/09/23 13:36:28;;;;;;;33.25;4.20;;;;;;;27.41;32.54;100855.75;10336402;28;20047;-77
2023/09/23 13:41:29;;;;;;;24.65;3.95;;;;;;;27.23;32.53;100859.78;10319568;28;20054;-77
2023/09/23 13:46:30;;;;;;;34.17;3.70;;;;;;;27.06;32.99;100854.47;10335045;28;20085;-76
2023/09/23 13:51:31;;;;;;;53.40;5.30;;;;;;;26.84;33.50;100835.56;10336469;28;20050;-77
2023/09/23 13:56:32;;;;;;;41.15;4.38;;;;;;;26.53;33.57;100803.75;10335750;28;20057;-76
2023/09/23 14:01:33;;;;;;;28.52;4.18;;;;;;;26.70;34.05;100866.28;10335742;28;20395;-76
2023/09/23 14:06:33;;;;;;;33.30;3.83;;;;;;;26.35;34.66;100833.00;10336462;28;20050;-76
2023/09/23 14:11:35;;;;;;;40.75;4.82;;;;;;;26.37;35.24;100870.91;10335363;28;20395;-77
2023/09/23 14:16:36;;;;;;;26.67;3.92;;;;;;;26.36;35.29;100886.44;10335479;28;20054;-76
2023/09/23 14:21:37;;;;;;;50.55;4.43;;;;;;;26.25;35.49;100875.72;10327539;28;20059;-77
2023/09/23 14:26:39;;;;;;;39.10;4.47;;;;;;;25.72;36.71;100848.22;10313691;28;20120;-76
2023/09/23 14:31:40;;;;;;;27.40;4.85;;;;;;;25.57;37.41;100850.78;10292481;28;20057;-76
2023/09/23 14:36:40;;;;;;;36.35;4.53;;;;;;;25.66;37.64;100895.50;10295660;28;20059;-76
2023/09/23 14:41:44;;;;;;;36.95;4.78;;;;;;;25.40;38.03;100876.19;10303581;28;20050;-77
2023/09/23 14:46:45;;;;;;;51.42;4.78;;;;;;;24.98;37.71;100840.53;10303663;28;20089;-76
2023/09/23 14:51:46;;;;;;;30.85;4.13;;;;;;;25.08;38.55;100894.22;10307789;28;20561;-76
2023/09/23 14:56:47;;;;;;;31.33;4.65;;;;;;;24.78;39.37;100873.69;10294171;28;20059;-77
2023/09/23 15:01:48;;;;;;;37.65;5.55;;;;;;;24.29;40.21;100832.69;10276717;28;20540;-76
2023/09/23 15:06:49;;;;;;;41.92;7.20;;;;;;;24.63;40.39;100922.34;10293522;28;20133;-76
2023/09/23 15:11:49;;;;;;;36.95;7.45;;;;;;;24.37;41.19;100900.97;10294210;28;20047;-77
2023/09/23 15:16:50;;;;;;;65.35;9.32;;;;;;;24.18;41.83;100902.28;10299798;28;20058;-76
2023/09/23 15:21:53;;;;;;;58.55;9.18;;;;;;;23.78;41.69;100843.53;10331935;28;20058;-75
2023/09/23 15:26:54;;;;;;;67.78;8.45;;;;;;;24.01;42.33;100909.56;10313207;28;20047;-75
2023/09/23 15:31:55;;;;;;;50.38;7.82;;;;;;;23.62;42.56;100872.19;10255936;28;20055;-76
2023/09/23 15:36:56;;;;;;;58.42;8.30;;;;;;;23.82;42.60;100925.25;10260685;28;20112;-76
2023/09/23 15:41:57;;;;;;;45.97;6.97;;;;;;;23.14;42.75;100845.47;10320557;28;20879;-76
2023/09/23 15:46:58;;;;;;;51.95;8.07;;;;;;;23.49;43.21;100934.03;10301520;28;20117;-76
2023/09/23 15:51:59;;;;;;;53.17;7.05;;;;;;;23.40;43.29;100949.84;10290741;28;20047;-76
2023/09/23 15:57:00;;;;;;;53.60;7.20;;;;;;;22.33;43.65;100805.47;10318147;28;20514;-78
2023/09/23 16:02:01;;;;;;;37.80;5.57;;;;;;;23.12;43.94;100950.56;10332535;28;20102;-75
2023/09/23 16:07:02;;;;;;;33.70;5.35;;;;;;;22.99;44.63;100959.75;10331286;28;20421;-76
2023/09/23 16:12:04;;;;;;;35.03;5.20;;;;;;;22.64;45.33;100927.19;10332145;28;20051;-76
2023/09/23 16:17:05;;;;;;;27.42;5.30;;;;;;;22.72;45.89;100968.31;10303486;28;20045;-72
2023/09/23 16:22:06;;;;;;;24.05;4.28;;;;;;;22.37;46.31;100940.31;10290468;28;20417;-76
2023/09/23 16:27:08;;;;;;;26.65;4.30;;;;;;;21.92;46.63;100892.84;10291886;28;20079;-77
2023/09/23 16:32:09;;;;;;;21.20;3.95;;;;;;;22.22;47.34;100960.50;10293625;28;20065;-77
2023/09/23 16:37:09;;;;;;;28.77;4.57;;;;;;;21.71;47.82;100902.28;10301125;28;20408;-77
2023/09/23 16:42:10;;;;;;;21.98;4.38;;;;;;;22.02;48.28;100965.38;10301994;28;20133;-76
2023/09/23 16:47:11;;;;;;;21.42;4.25;;;;;;;21.66;48.61;100934.63;10313392;28;20054;-74
2023/09/23 16:52:12;;;;;;;24.95;4.68;;;;;;;21.60;48.83;100965.28;10291762;28;20058;-74
2023/09/23 16:57:12;;;;;;;22.45;4.22;;;;;;;21.46;49.15;100969.16;10290272;28;20046;-74
2023/09/23 17:02:16;;;;;;;19.77;4.00;;;;;;;21.42;49.77;100999.34;10291041;28;20070;-75
2023/09/23 17:07:16;;;;;;;23.83;4.40;;;;;;;20.63;50.35;100897.41;10280121;28;20082;-81
2023/09/23 17:12:17;;;;;;;18.30;4.10;;;;;;;20.39;50.97;100896.34;10330492;28;20085;-78
2023/09/23 17:17:18;;;;;;;23.10;3.70;;;;;;;20.90;51.33;100995.22;10313005;28;20046;-76
2023/09/23 17:22:19;;;;;;;21.60;4.13;;;;;;;20.32;52.16;100927.94;10326782;28;20062;-74
2023/09/23 17:27:20;;;;;;;23.75;4.53;;;;;;;20.64;52.93;101012.44;10280242;28;20100;-75
2023/09/23 17:32:20;;;;;;;28.83;4.57;;;;;;;20.51;53.59;101002.53;10296064;28;20057;-74
2023/09/23 17:37:21;;;;;;;15.32;3.80;;;;;;;20.42;54.61;101009.22;10296235;28;20055;-77
2023/09/23 17:42:22;;;;;;;18.42;4.35;;;;;;;20.21;55.35;100994.19;10296609;28;20047;-76
2023/09/23 17:47:23;;;;;;;27.83;4.22;;;;;;;20.21;55.76;101013.09;10309054;28;20046;-76
2023/09/23 17:52:24;;;;;;;22.73;4.50;;;;;;;19.92;56.35;100977.50;10332173;28;20054;-75
2023/09/23 17:57:27;;;;;;;36.05;4.85;;;;;;;19.88;57.06;101008.66;10321717;28;20505;-73
2023/09/23 18:02:28;;;;;;;21.42;5.20;;;;;;;19.73;57.66;100991.91;10303146;28;20093;-73
2023/09/23 18:07:29;;;;;;;21.42;4.30;;;;;;;19.77;58.53;101014.69;10298289;28;20461;-74
2023/09/23 18:12:30;;;;;;;16.17;4.55;;;;;;;19.75;59.33;101022.19;10274882;28;20055;-76
2023/09/23 18:17:31;;;;;;;13.95;3.83;;;;;;;19.54;59.75;101001.69;10311770;28;20137;-76
2023/09/23 18:22:31;;;;;;;16.70;3.80;;;;;;;19.65;60.01;101021.78;10302509;28;20137;-74
2023/09/23 18:27:33;;;;;;;19.42;3.83;;;;;;;19.00;60.49;100941.69;10334717;28;20104;-76
2023/09/23 18:32:34;;;;;;;18.15;3.95;;;;;;;19.38;61.57;101019.97;10294552;28;20064;-73
2023/09/23 18:37:35;;;;;;;13.93;3.90;;;;;;;19.29;62.47;101015.81;10295415;28;20137;-74
2023/09/23 18:42:37;;;;;;;10.93;3.33;;;;;;;19.12;63.67;100996.56;10302105;28;20157;-74
2023/09/23 18:47:37;;;;;;;14.55;3.60;;;;;;;18.87;64.35;100960.53;10295258;28;20525;-74
2023/09/23 18:52:38;;;;;;;13.52;3.60;;;;;;;19.11;65.17;101012.91;10295942;28;20145;-78
2023/09/23 18:57:39;;;;;;;12.88;3.25;;;;;;;19.05;66.32;101011.88;10307805;28;20055;-74
2023/09/23 19:02:43;;;;;;;12.80;3.25;;;;;;;18.93;66.50;101000.94;10299086;28;20042;-72
2023/09/23 19:07:44;;;;;;;6.68;3.35;;;;;;;19.00;66.82;101013.56;10282189;28;20058;-78
2023/09/23 19:12:46;;;;;;;6.90;3.35;;;;;;;18.80;67.74;101010.84;10292949;28;20062;-75
2023/09/23 19:17:47;;;;;;;7.85;3.28;;;;;;;18.17;68.34;100931.25;10294159;28;20423;-76
2023/09/23 19:22:49;;;;;;;18.23;3.88;;;;;;;18.67;68.87;101004.41;10295489;28;20061;-72
2023/09/23 19:27:49;;;;;;;12.80;4.00;;;;;;;18.48;69.30;100975.59;10322166;28;20045;-76
2023/09/23 19:32:50;;;;;;;8.23;4.22;;;;;;;18.10;69.49;100916.97;10294381;28;20400;-74
2023/09/23 19:37:51;;;;;;;11.02;4.93;;;;;;;18.15;70.58;100938.69;10308753;28;20065;-73
2023/09/23 19:42:53;;;;;;;11.63;5.50;;;;;;;18.49;71.20;101009.53;10294364;28;20136;-74
2023/09/23 19:47:55;;;;;;;14.07;5.50;;;;;;;17.87;72.18;100909.25;10306865;28;20049;-75
2023/09/23 19:52:56;;;;;;;9.05;5.28;;;;;;;18.33;72.62;100983.84;10312757;28;20057;-78
2023/09/23 19:57:57;;;;;;;9.25;4.90;;;;;;;18.12;73.40;100960.59;10291682;28;20046;-78
2023/09/23 20:02:58;;;;;;;8.07;5.18;;;;;;;17.66;73.79;100912.88;10291931;28;20506;-76
2023/09/23 20:07:59;;;;;;;6.97;4.78;;;;;;;18.11;74.95;100999.28;10299349;28;20055;-75
2023/09/23 20:13:01;;;;;;;6.78;4.68;;;;;;;18.00;75.96;100984.56;10291379;28;20051;-74
2023/09/23 20:18:04;;;;;;;7.35;4.95;;;;;;;17.92;76.60;100986.59;10320156;28;20047;-74
2023/09/23 20:23:05;;;;;;;11.35;5.18;;;;;;;17.83;77.36;100977.03;10331586;28;20494;-74
2023/09/23 20:28:07;;;;;;;7.82;5.03;;;;;;;17.44;78.16;100920.22;10331309;28;20050;-81
2023/09/23 20:33:09;;;;;;;7.45;4.40;;;;;;;17.70;79.25;100969.72;10331487;28;20109;-74
2023/09/23 20:38:10;;;;;;;8.05;5.03;;;;;;;17.41;80.45;100933.19;10319713;28;20525;-75
2023/09/23 20:43:12;;;;;;;9.70;5.25;;;;;;;17.42;81.89;100941.06;10309449;28;20057;-78
2023/09/23 20:48:13;;;;;;;8.60;4.90;;;;;;;17.36;82.68;100930.31;10306769;28;20129;-75
2023/09/23 20:53:13;;;;;;;7.47;5.20;;;;;;;16.98;83.75;100872.44;10332800;28;20506;-75
2023/09/23 20:58:14;;;;;;;10.52;5.10;;;;;;;17.28;85.27;100933.97;10338496;28;20054;-75
2023/09/23 21:03:15;;;;;;;7.68;5.20;;;;;;;17.07;86.42;100908.03;10318313;28;20046;-75
2023/09/23 21:08:16;;;;;;;11.88;5.63;;;;;;;16.97;87.57;100894.13;10298722;28;20058;-75
2023/09/23 21:13:17;;;;;;;10.55;5.25;;;;;;;16.67;88.64;100843.34;10297631;28;20427;-75
2023/09/23 21:18:18;;;;;;;11.00;5.47;;;;;;;17.04;89.65;100911.09;10297484;28;20097;-75
2023/09/23 21:23:19;;;;;;;11.52;5.65;;;;;;;16.77;90.78;100878.72;10297085;28;20193;-75
2023/09/23 21:28:20;;;;;;;11.13;5.80;;;;;;;16.82;91.69;100888.88;10297379;28;20101;-75
2023/09/23 21:33:21;;;;;;;11.95;5.70;;;;;;;16.86;92.44;100908.91;10297436;28;20058;-75
2023/09/23 21:38:22;;;;;;;8.20;5.93;;;;;;;16.79;93.08;100892.78;10296105;28;20046;-75
2023/09/23 21:43:23;;;;;;;9.23;5.70;;;;;;;16.82;93.65;100904.97;10296281;28;20051;-74
2023/09/23 21:48:24;;;;;;;9.30;6.10;;;;;;;16.75;94.28;100912.94;10296726;28;20105;-75
2023/09/23 21:53:27;;;;;;;12.65;5.90;;;;;;;16.46;94.70;100846.91;10297086;28;20051;-75
2023/09/23 21:58:28;;;;;;;10.38;5.70;;;;;;;16.16;95.51;100808.69;10295991;28;20047;-75
2023/09/23 22:03:34;;;;;;;9.48;6.18;;;;;;;16.65;96.52;100899.03;10295601;28;20399;-75
2023/09/23 22:08:34;;;;;;;9.95;5.88;;;;;;;16.24;96.86;100830.00;10295428;28;20054;-75
2023/09/23 22:13:35;;;;;;;10.38;6.00;;;;;;;15.98;97.13;100791.22;10295456;28;20422;-75
2023/09/23 22:18:36;;;;;;;9.07;5.82;;;;;;;16.29;97.74;100842.81;10294699;28;20047;-75
2023/09/23 22:23:37;;;;;;;8.45;6.00;;;;;;;15.56;97.82;100724.25;10294988;28;20090;-75
2023/09/23 22:28:38;;;;;;;9.57;5.60;;;;;;;15.83;98.04;100776.25;10294512;28;20102;-75
2023/09/23 22:33:38;;;;;;;11.00;5.88;;;;;;;16.03;98.59;100817.44;10294928;28;20063;-75
2023/09/23 22:38:39;;;;;;;9.57;5.60;;;;;;;16.26;98.89;100868.16;10294694;28;20047;-75
2023/09/23 22:43:40;;;;;;;10.27;5.93;;;;;;;16.24;99.21;100856.78;10293863;28;20047;-75
2023/09/23 22:48:40;;;;;;;9.80;5.57;;;;;;;16.27;99.36;100858.25;10293468;28;20047;-75
2023/09/23 22:53:45;;;;;;;9.70;5.57;;;;;;;16.14;99.53;100842.91;10293802;28;20058;-75